Time;durP1;ratioP1;P1;durP2;ratioP2;P2;SDS_P1;SDS_P2;PMS_P1;PMS_P2;Temp;Humidity;BMP_temperature;BMP_pressure;BME280_temperature;BME280_humidity;BME280_pressure;Samples;Min_cycle;Max_cycle;Signal;HPM_P1;HPM_P2
2021/06/20 00:01:04;;;;;;;156.65;134.10;;;;;;;23.13;71.16;97399.84;5058819;28;20898;-76
2021/06/20 00:03:31;;;;;;;186.60;135.25;;;;;;;23.12;70.74;97402.66;5060225;28;20220;-76
2021/06/20 00:05:59;;;;;;;176.68;133.18;;;;;;;23.22;70.07;97409.53;5059401;28;20777;-76
2021/06/20 00:08:25;;;;;;;183.60;135.65;;;;;;;23.25;69.74;97414.56;5061932;28;20467;-76
2021/06/20 00:10:52;;;;;;;172.85;132.23;;;;;;;23.03;70.32;97413.22;5059580;28;20251;-76
2021/06/20 00:13:19;;;;;;;200.88;145.63;;;;;;;23.15;71.73;97413.81;5059619;28;20217;-75
2021/06/20 00:15:49;;;;;;;181.95;139.30;;;;;;;23.21;70.74;97417.66;5061722;28;20234;-76
2021/06/20 00:18:17;;;;;;;183.13;135.55;;;;;;;23.25;70.60;97409.25;5057688;28;20587;-77
2021/06/20 00:20:46;;;;;;;196.45;145.38;;;;;;;23.48;71.41;97414.00;5056808;28;20324;-76
2021/06/20 00:23:13;;;;;;;205.43;144.98;;;;;;;23.16;71.81;97410.19;5059737;28;20214;-75
2021/06/20 00:25:40;;;;;;;184.77;144.85;;;;;;;23.10;71.92;97410.78;5059985;28;20240;-76
2021/06/20 00:28:07;;;;;;;194.77;134.50;;;;;;;23.08;71.40;97402.13;5059179;28;20241;-75
2021/06/20 00:30:35;;;;;;;199.95;140.50;;;;;;;22.98;72.61;97396.06;5059226;28;20232;-75
2021/06/20 00:33:04;;;;;;;192.18;138.55;;;;;;;22.84;72.48;97400.94;5060980;28;20209;-75
2021/06/20 00:35:30;;;;;;;197.27;140.85;;;;;;;22.83;73.02;97398.47;5058417;28;20241;-77
2021/06/20 00:37:57;;;;;;;197.80;147.07;;;;;;;22.84;75.12;97395.63;5062643;28;20761;-75
2021/06/20 00:40:24;;;;;;;203.70;140.23;;;;;;;22.85;73.06;97388.50;5057622;28;20241;-77
2021/06/20 00:42:51;;;;;;;199.52;140.77;;;;;;;22.97;74.18;97381.09;5061476;28;20227;-75
2021/06/20 00:45:18;;;;;;;209.70;140.77;;;;;;;22.84;72.87;97378.84;5060104;28;20209;-76
2021/06/20 00:47:46;;;;;;;203.68;137.68;;;;;;;22.77;72.48;97383.94;5059445;28;20233;-76
2021/06/20 00:50:15;;;;;;;196.65;138.30;;;;;;;22.93;73.91;97379.75;5059732;28;20213;-76
2021/06/20 00:52:42;;;;;;;208.45;142.20;;;;;;;22.72;71.66;97378.28;5060007;28;20699;-76
2021/06/20 00:55:10;;;;;;;205.18;130.50;;;;;;;22.78;72.51;97372.31;5059545;28;20699;-76
2021/06/20 00:57:37;;;;;;;201.02;137.35;;;;;;;22.71;72.51;97363.28;5061792;28;20217;-75
2021/06/20 01:00:05;;;;;;;216.32;140.07;;;;;;;22.51;72.85;97362.63;5062173;28;20208;-76
2021/06/20 01:02:32;;;;;;;308.42;155.95;;;;;;;22.06;73.75;97371.50;5054470;28;20210;-75
2021/06/20 01:04:58;;;;;;;213.32;138.57;;;;;;;22.29;73.66;97361.28;5058795;28;20221;-75
2021/06/20 01:07:26;;;;;;;202.63;140.05;;;;;;;22.64;73.11;97368.38;5059211;28;20233;-76
2021/06/20 01:09:53;;;;;;;208.88;139.88;;;;;;;22.94;71.72;97362.78;5060344;28;20209;-75
2021/06/20 01:12:21;;;;;;;214.07;138.18;;;;;;;22.71;74.46;97360.63;5058086;28;20280;-75
2021/06/20 01:14:48;;;;;;;230.30;140.30;;;;;;;22.61;74.10;97362.56;5059560;28;20588;-75
2021/06/20 01:17:16;;;;;;;230.70;144.20;;;;;;;22.67;75.81;97359.28;5059570;28;20237;-75
2021/06/20 01:19:43;;;;;;;216.32;138.93;;;;;;;22.76;75.36;97355.69;5060633;28;20205;-76
2021/06/20 01:22:16;;;;;;;235.35;141.07;;;;;;;22.64;73.21;97347.13;5059046;28;20248;-76
2021/06/20 01:24:43;;;;;;;227.38;141.70;;;;;;;22.51;73.28;97350.19;5063690;28;20695;-75
2021/06/20 01:27:11;;;;;;;232.18;142.85;;;;;;;22.60;74.84;97339.63;5058323;28;20240;-75
2021/06/20 01:29:45;;;;;;;233.68;144.75;;;;;;;22.62;74.50;97333.16;5059159;28;20593;-76
2021/06/20 01:32:11;;;;;;;219.45;135.23;;;;;;;22.45;74.86;97337.50;5059361;28;20302;-76
2021/06/20 01:34:38;;;;;;;235.68;143.30;;;;;;;22.77;77.28;97328.09;5059580;28;20225;-75
2021/06/20 01:37:07;;;;;;;214.88;134.52;;;;;;;22.51;75.21;97334.22;5062254;28;20355;-75
2021/06/20 01:39:36;;;;;;;217.05;136.15;;;;;;;22.40;75.29;97334.47;5058827;28;20306;-76
2021/06/20 01:42:03;;;;;;;225.15;137.05;;;;;;;22.47;73.59;97330.22;5060166;28;20245;-75
2021/06/20 01:44:30;;;;;;;222.63;136.93;;;;;;;22.45;74.71;97336.69;5059247;28;20682;-75
2021/06/20 01:46:56;;;;;;;217.43;132.07;;;;;;;22.52;73.80;97335.91;5058557;28;20953;-76
2021/06/20 01:49:23;;;;;;;227.38;139.43;;;;;;;22.47;73.79;97324.09;5059069;28;20237;-75
2021/06/20 01:51:50;;;;;;;215.43;138.35;;;;;;;22.42;73.87;97327.19;5057673;28;20883;-75
2021/06/20 01:54:16;;;;;;;210.95;136.07;;;;;;;22.28;74.84;97327.75;5061293;28;20247;-75
2021/06/20 01:56:44;;;;;;;215.88;132.85;;;;;;;22.43;73.54;97339.50;5058666;28;20260;-75
2021/06/20 01:59:11;;;;;;;211.80;132.52;;;;;;;21.95;74.99;97341.53;5060029;28;20214;-75
2021/06/20 02:01:37;;;;;;;240.02;136.25;;;;;;;21.95;74.97;97343.34;5059176;28;20241;-75
2021/06/20 02:04:04;;;;;;;215.98;133.55;;;;;;;21.97;74.36;97346.69;5056578;28;20308;-75
2021/06/20 02:06:35;;;;;;;205.02;130.32;;;;;;;22.42;73.49;97348.44;5057575;28;20238;-75
2021/06/20 02:09:02;;;;;;;216.18;130.25;;;;;;;22.50;71.92;97345.88;5059270;28;20316;-75
2021/06/20 02:11:30;;;;;;;227.90;137.70;;;;;;;22.71;72.73;97348.16;5059787;28;20324;-75
2021/06/20 02:13:58;;;;;;;231.10;138.77;;;;;;;22.87;72.64;97347.47;5058470;28;20224;-76
2021/06/20 02:16:25;;;;;;;240.05;141.10;;;;;;;22.68;78.07;97352.97;5059728;28;20237;-75
2021/06/20 02:18:51;;;;;;;252.40;141.88;;;;;;;22.44;73.67;97350.94;5058152;28;20679;-76
2021/06/20 02:21:18;;;;;;;251.30;143.05;;;;;;;22.37;73.83;97349.91;5060590;28;20238;-75
2021/06/20 02:23:44;;;;;;;250.23;135.95;;;;;;;22.12;73.46;97352.31;5056800;28;20247;-75
2021/06/20 02:26:11;;;;;;;237.68;141.55;;;;;;;22.33;74.93;97347.56;5056647;28;20233;-75
2021/06/20 02:28:37;;;;;;;232.32;139.52;;;;;;;22.35;73.74;97351.88;5060452;28;21021;-75
2021/06/20 02:31:06;;;;;;;254.68;147.88;;;;;;;22.29;75.24;97354.16;5062201;28;20249;-75
2021/06/20 02:33:33;;;;;;;245.95;137.85;;;;;;;22.12;74.58;97347.81;5060599;28;20262;-74
2021/06/20 02:36:00;;;;;;;246.25;139.35;;;;;;;22.25;73.89;97350.09;5060201;28;20611;-74
2021/06/20 02:38:27;;;;;;;247.70;139.15;;;;;;;22.17;73.58;97350.03;5061022;28;20218;-75
2021/06/20 02:40:53;;;;;;;247.48;138.30;;;;;;;22.12;74.67;97347.81;5060305;28;20243;-75
2021/06/20 02:43:20;;;;;;;257.52;142.63;;;;;;;22.04;74.12;97350.41;5064480;28;20216;-75
2021/06/20 02:45:46;;;;;;;240.40;136.85;;;;;;;21.90;73.67;97358.91;5063425;28;20844;-74
2021/06/20 02:48:14;;;;;;;250.63;139.15;;;;;;;22.06;72.96;97353.75;5064730;28;20238;-76
2021/06/20 02:50:41;;;;;;;254.88;139.73;;;;;;;22.11;72.92;97356.78;5062249;28;20238;-75
2021/06/20 02:53:08;;;;;;;252.73;135.80;;;;;;;22.38;73.21;97363.03;5060026;28;20221;-76
2021/06/20 02:55:35;;;;;;;247.45;134.52;;;;;;;22.31;73.32;97361.97;5060216;28;20237;-76
2021/06/20 02:58:01;;;;;;;241.75;132.98;;;;;;;22.14;73.73;97367.09;5060711;28;20301;-75
2021/06/20 03:00:28;;;;;;;241.70;135.82;;;;;;;21.73;75.21;97373.81;5066858;28;20848;-75
2021/06/20 03:02:54;;;;;;;253.98;137.85;;;;;;;21.79;75.07;97378.50;5064535;28;20218;-75
2021/06/20 03:05:22;;;;;;;256.63;139.38;;;;;;;22.09;74.96;97374.69;5062898;28;20225;-75
2021/06/20 03:07:49;;;;;;;249.52;144.35;;;;;;;22.52;74.97;97372.28;5064855;28;20237;-76
2021/06/20 03:10:15;;;;;;;259.35;141.23;;;;;;;22.41;73.29;97372.53;5062860;28;20221;-75
2021/06/20 03:12:42;;;;;;;256.98;139.68;;;;;;;22.16;75.72;97380.22;5067049;28;20213;-75
2021/06/20 03:15:09;;;;;;;249.98;131.07;;;;;;;21.32;78.39;97399.78;5061420;28;20221;-74
2021/06/20 03:17:36;;;;;;;257.17;137.73;;;;;;;21.49;84.31;97387.63;5065281;28;20239;-75
2021/06/20 03:20:04;;;;;;;259.90;136.48;;;;;;;21.83;76.57;97369.25;5064986;28;20228;-76
2021/06/20 03:22:31;;;;;;;258.67;139.48;;;;;;;21.70;76.62;97379.41;5059379;28;20257;-75
2021/06/20 03:24:58;;;;;;;253.05;137.48;;;;;;;21.51;77.21;97390.97;5065608;28;20223;-75
2021/06/20 03:27:25;;;;;;;257.65;131.60;;;;;;;21.36;78.82;97391.41;5060270;28;20247;-74
2021/06/20 03:29:51;;;;;;;250.25;131.00;;;;;;;21.80;77.58;97380.19;5059579;28;20391;-76
2021/06/20 03:32:21;;;;;;;249.90;137.50;;;;;;;21.98;77.21;97396.13;5059759;28;20237;-74
2021/06/20 03:34:47;;;;;;;259.52;133.82;;;;;;;22.06;75.06;97401.56;5061312;28;20218;-75
2021/06/20 03:37:14;;;;;;;249.85;129.93;;;;;;;21.49;77.80;97416.81;5064418;28;20237;-75
2021/06/20 03:39:42;;;;;;;251.52;132.88;;;;;;;20.95;81.95;97422.66;5063000;28;20206;-76
2021/06/20 03:42:09;;;;;;;249.25;131.65;;;;;;;21.41;79.94;97411.34;5062758;28;20739;-76
2021/06/20 03:44:35;;;;;;;247.55;133.25;;;;;;;21.87;77.62;97401.66;5064440;28;20216;-75
2021/06/20 03:47:03;;;;;;;252.00;137.43;;;;;;;22.22;76.11;97397.38;5059210;28;20257;-75
2021/06/20 03:49:29;;;;;;;251.15;131.68;;;;;;;22.10;77.99;97399.44;5060288;28;20249;-74
2021/06/20 03:51:56;;;;;;;263.75;133.00;;;;;;;21.33;79.89;97406.78;5058024;28;20241;-75
2021/06/20 03:54:24;;;;;;;252.00;128.80;;;;;;;20.84;83.42;97414.84;5060613;28;20217;-75
2021/06/20 03:56:52;;;;;;;261.23;136.60;;;;;;;21.50;80.67;97405.19;5060556;28;20237;-75
2021/06/20 03:59:19;;;;;;;246.63;132.15;;;;;;;21.94;77.64;97419.50;5059821;28;20205;-75
2021/06/20 04:01:46;;;;;;;257.88;137.27;;;;;;;21.08;81.18;97445.34;5058430;28;20247;-76
2021/06/20 04:04:13;;;;;;;262.13;138.98;;;;;;;21.04;82.46;97451.94;5058824;28;20206;-75
2021/06/20 04:06:39;;;;;;;242.32;131.15;;;;;;;20.91;83.30;97463.66;5056134;28;21079;-75
2021/06/20 04:09:06;;;;;;;317.83;150.68;;;;;;;21.08;81.37;97461.25;5059866;28;20242;-76
2021/06/20 04:11:32;;;;;;;261.45;132.43;;;;;;;20.84;83.32;97493.53;5060874;28;20234;-75
2021/06/20 04:14:01;;;;;;;253.88;133.32;;;;;;;21.34;82.74;97480.06;5058913;28;20213;-74
2021/06/20 04:16:28;;;;;;;266.40;136.20;;;;;;;21.66;78.94;97490.31;5060624;28;20240;-76
2021/06/20 04:18:54;;;;;;;250.98;133.93;;;;;;;21.20;81.17;97491.94;5063573;28;20210;-74
2021/06/20 04:21:21;;;;;;;261.25;135.20;;;;;;;21.60;79.22;97495.41;5059168;28;20638;-75
2021/06/20 04:23:48;;;;;;;254.48;133.02;;;;;;;21.51;78.86;97494.44;5060698;28;20681;-74
2021/06/20 04:26:15;;;;;;;253.80;135.25;;;;;;;22.01;77.39;97483.47;5056487;28;20276;-75
2021/06/20 04:28:43;;;;;;;247.23;131.55;;;;;;;22.19;76.61;97474.72;5057309;28;20234;-75
2021/06/20 04:31:11;;;;;;;256.40;137.90;;;;;;;22.28;76.03;97463.25;5062353;28;20259;-75
2021/06/20 04:33:37;;;;;;;253.85;140.13;;;;;;;22.20;76.19;97461.28;5060390;28;20214;-76
2021/06/20 04:36:05;;;;;;;256.85;136.05;;;;;;;22.35;77.55;97463.44;5056858;28;20268;-74
2021/06/20 04:38:31;;;;;;;254.63;139.98;;;;;;;22.37;75.59;97461.47;5058091;28;20210;-74
2021/06/20 04:41:02;;;;;;;260.58;141.38;;;;;;;22.36;76.90;97455.34;5061065;28;20323;-75
2021/06/20 04:43:39;;;;;;;259.60;141.25;;;;;;;22.23;78.03;97460.16;5060228;28;20215;-75
2021/06/20 04:46:18;;;;;;;252.70;138.38;;;;;;;21.99;82.03;97466.84;5062242;28;20347;-74
2021/06/20 04:48:44;;;;;;;261.55;140.38;;;;;;;21.92;81.42;97466.59;5059131;28;20579;-75
2021/06/20 04:51:11;;;;;;;250.68;136.77;;;;;;;21.79;81.72;97462.63;5059736;28;20249;-75
2021/06/20 04:53:37;;;;;;;261.27;140.63;;;;;;;21.67;82.53;97459.31;5059288;28;20217;-75
2021/06/20 04:56:05;;;;;;;255.50;137.77;;;;;;;21.63;82.01;97466.72;5058999;28;20252;-76
2021/06/20 04:58:31;;;;;;;253.50;134.90;;;;;;;21.56;84.50;97473.63;5060830;28;20205;-75
2021/06/20 05:00:58;;;;;;;262.90;143.20;;;;;;;21.63;82.96;97477.34;5058666;28;20234;-75
2021/06/20 05:03:25;;;;;;;256.75;134.07;;;;;;;21.66;83.65;97473.56;5058519;28;20244;-75
2021/06/20 05:05:52;;;;;;;252.13;140.25;;;;;;;21.73;84.06;97480.81;5060052;28;20823;-74
2021/06/20 05:08:18;;;;;;;267.05;140.57;;;;;;;21.73;82.36;97478.16;5058487;28;20316;-75
2021/06/20 05:10:45;;;;;;;243.98;134.23;;;;;;;22.18;81.17;97478.34;5057517;28;20599;-75
2021/06/20 05:13:12;;;;;;;262.08;140.82;;;;;;;22.33;80.60;97477.75;5057974;28;20214;-75
2021/06/20 05:15:38;;;;;;;260.73;140.75;;;;;;;22.09;80.99;97491.56;5057192;28;20236;-74
2021/06/20 05:18:05;;;;;;;253.73;141.48;;;;;;;22.20;79.05;97487.84;5060369;28;20602;-75
2021/06/20 05:20:33;;;;;;;260.35;144.52;;;;;;;22.66;79.76;97487.84;5065176;28;20241;-75
2021/06/20 05:22:59;;;;;;;254.95;143.30;;;;;;;22.73;78.51;97496.06;5057723;28;20228;-75
2021/06/20 05:25:26;;;;;;;269.38;148.60;;;;;;;22.74;78.69;97500.41;5055947;28;20213;-75
2021/06/20 05:27:53;;;;;;;260.65;147.45;;;;;;;22.64;80.63;97500.44;5059238;28;20218;-75
2021/06/20 05:30:20;;;;;;;270.70;153.48;;;;;;;22.94;80.10;97493.06;5057734;28;20237;-74
2021/06/20 05:32:49;;;;;;;264.08;148.80;;;;;;;23.11;77.72;97489.59;5061578;28;20235;-75
2021/06/20 05:35:16;;;;;;;254.02;145.68;;;;;;;23.18;78.18;97492.50;5058904;28;20207;-75
2021/06/20 05:37:44;;;;;;;258.63;148.90;;;;;;;22.86;80.08;97497.34;5056203;28;20224;-76
2021/06/20 05:40:11;;;;;;;261.40;141.00;;;;;;;23.41;76.69;97492.81;5059629;28;20220;-74
2021/06/20 05:42:37;;;;;;;261.55;150.20;;;;;;;23.50;77.88;97486.53;5060756;28;20220;-75
2021/06/20 05:45:05;;;;;;;261.33;152.65;;;;;;;23.27;78.08;97489.72;5057103;28;20709;-75
2021/06/20 05:47:32;;;;;;;258.70;146.20;;;;;;;23.47;77.30;97502.81;5059038;28;20248;-75
2021/06/20 05:49:58;;;;;;;252.38;149.80;;;;;;;23.52;78.78;97500.53;5059320;28;20229;-75
2021/06/20 05:52:25;;;;;;;268.02;158.52;;;;;;;23.74;76.52;97506.31;5057387;28;20284;-75
2021/06/20 05:54:53;;;;;;;252.27;152.68;;;;;;;23.91;76.54;97500.09;5058915;28;20587;-76
2021/06/20 05:57:20;;;;;;;251.75;150.73;;;;;;;23.98;75.42;97501.13;5056260;28;20233;-75
2021/06/20 05:59:50;;;;;;;252.48;152.35;;;;;;;23.81;77.69;97507.38;5059569;28;20923;-76
2021/06/20 06:02:17;;;;;;;252.38;159.18;;;;;;;23.94;73.81;97520.25;5058202;28;20238;-75
2021/06/20 06:04:43;;;;;;;263.52;152.23;;;;;;;23.71;75.37;97533.25;5057252;28;20710;-75
2021/06/20 06:07:10;;;;;;;256.42;150.35;;;;;;;23.80;72.76;97537.66;5056424;28;20248;-76
2021/06/20 06:09:36;;;;;;;249.98;152.35;;;;;;;23.78;74.42;97553.75;5059653;28;20506;-75
2021/06/20 06:12:05;;;;;;;262.08;156.35;;;;;;;23.64;76.63;97567.66;5056734;28;20298;-75
2021/06/20 06:14:32;;;;;;;265.27;154.13;;;;;;;23.28;79.70;97587.16;5059920;28;20229;-75
2021/06/20 06:16:58;;;;;;;255.43;152.32;;;;;;;23.07;83.24;97591.97;5057475;28;20241;-75
2021/06/20 06:19:25;;;;;;;268.40;155.77;;;;;;;22.83;83.42;97590.72;5062198;28;20213;-74
2021/06/20 06:21:52;;;;;;;271.65;150.85;;;;;;;23.00;84.06;97577.59;5062753;28;20260;-75
2021/06/20 06:24:18;;;;;;;259.52;153.35;;;;;;;22.36;88.20;97577.56;5064120;28;20229;-75
2021/06/20 06:26:45;;;;;;;271.60;154.15;;;;;;;21.53;97.10;97574.72;5063271;28;20237;-76
2021/06/20 06:29:13;;;;;;;281.85;153.07;;;;;;;20.69;100.00;97564.66;5063119;28;20237;-75
2021/06/20 06:36:20;;;;;;;305.75;163.90;;;;;;;20.28;100.00;97559.38;5122764;27;20567;-77
2021/06/20 06:38:46;;;;;;;303.08;155.20;;;;;;;20.37;100.00;97565.66;5109981;27;20760;-75
2021/06/20 06:41:17;;;;;;;301.35;153.73;;;;;;;20.40;100.00;97568.03;5094923;28;20241;-76
2021/06/20 06:43:44;;;;;;;290.40;142.90;;;;;;;20.78;100.00;97558.53;5087503;28;20689;-75
2021/06/20 06:46:10;;;;;;;305.35;155.88;;;;;;;21.15;100.00;97560.47;5087877;28;20733;-75
2021/06/20 06:48:37;;;;;;;291.60;147.18;;;;;;;20.73;100.00;97544.84;5084802;28;20217;-76
2021/06/20 06:51:04;;;;;;;293.02;150.45;;;;;;;20.76;100.00;97576.38;5086805;28;20612;-76
2021/06/20 06:53:32;;;;;;;298.15;148.65;;;;;;;20.66;100.00;97594.06;5088857;28;20219;-75
2021/06/20 06:55:58;;;;;;;288.10;144.90;;;;;;;20.96;100.00;97604.56;5086225;28;20729;-76
2021/06/20 06:58:25;;;;;;;270.73;142.70;;;;;;;20.99;100.00;97584.94;5088891;28;20218;-75
2021/06/20 07:00:52;;;;;;;279.67;136.80;;;;;;;21.09;100.00;97601.66;5084515;28;20381;-75
2021/06/20 07:03:19;;;;;;;320.95;150.07;;;;;;;20.77;100.00;97626.59;5086042;28;20208;-74
2021/06/20 07:05:46;;;;;;;279.48;131.57;;;;;;;21.23;100.00;97629.59;5084965;28;20232;-76
2021/06/20 07:08:12;;;;;;;276.98;140.57;;;;;;;21.17;100.00;97643.38;5088852;28;20212;-76
2021/06/20 07:10:40;;;;;;;283.83;144.32;;;;;;;21.67;100.00;97629.16;5086937;28;20236;-76
2021/06/20 07:13:06;;;;;;;278.75;139.50;;;;;;;20.80;100.00;97662.59;5086553;28;20213;-76
2021/06/20 07:15:33;;;;;;;294.25;146.98;;;;;;;21.26;100.00;97684.16;5088420;28;20239;-75
2021/06/20 07:17:59;;;;;;;277.83;145.25;;;;;;;21.35;100.00;97708.03;5084400;28;20246;-76
2021/06/20 07:20:26;;;;;;;287.95;141.25;;;;;;;21.54;100.00;97717.88;5085421;28;20656;-75
2021/06/20 07:22:53;;;;;;;271.08;135.00;;;;;;;21.62;100.00;97727.78;5087781;28;20216;-74
2021/06/20 07:25:21;;;;;;;287.52;144.60;;;;;;;21.69;100.00;97718.31;5087923;28;20233;-75
2021/06/20 07:27:49;;;;;;;274.02;134.00;;;;;;;21.70;100.00;97722.63;5087084;28;20225;-75
2021/06/20 07:30:18;;;;;;;275.30;137.60;;;;;;;21.23;100.00;97725.06;5083657;28;20695;-74
2021/06/20 07:32:45;;;;;;;272.35;127.65;;;;;;;22.02;100.00;97697.59;5086891;28;20232;-74
2021/06/20 07:35:13;;;;;;;275.55;133.98;;;;;;;22.04;100.00;97692.97;5085210;28;20246;-76
2021/06/20 07:37:40;;;;;;;258.35;121.03;;;;;;;21.40;100.00;97694.38;5087548;28;20825;-74
2021/06/20 07:40:08;;;;;;;258.77;128.98;;;;;;;21.88;100.00;97688.25;5086905;28;20721;-75
2021/06/20 07:42:35;;;;;;;266.17;127.20;;;;;;;22.23;100.00;97680.63;5086659;28;20634;-75
2021/06/20 07:45:03;;;;;;;253.55;127.65;;;;;;;22.74;100.00;97687.31;5085934;28;20246;-76
2021/06/20 07:47:29;;;;;;;267.92;123.53;;;;;;;22.11;100.00;97691.44;5076523;28;20246;-74
2021/06/20 07:49:56;;;;;;;274.25;131.20;;;;;;;21.85;100.00;97695.66;5073735;28;20613;-74
2021/06/20 07:52:23;;;;;;;270.23;129.15;;;;;;;22.10;100.00;97689.75;5112406;27;20250;-75
2021/06/20 07:54:52;;;;;;;262.65;136.55;;;;;;;22.45;100.00;97672.31;5115617;27;20672;-75
2021/06/20 07:57:20;;;;;;;269.58;139.43;;;;;;;22.89;100.00;97659.25;5109632;27;20242;-71
2021/06/20 07:59:47;;;;;;;255.90;131.88;;;;;;;23.77;100.00;97642.63;5113162;27;20214;-70
2021/06/20 08:02:15;;;;;;;252.80;135.93;;;;;;;23.69;100.00;97661.19;5113256;27;20250;-71
2021/06/20 08:04:42;;;;;;;255.50;133.15;;;;;;;23.39;100.00;97667.75;5113522;27;20232;-70
2021/06/20 08:07:09;;;;;;;266.30;144.65;;;;;;;22.37;100.00;97672.22;5108779;27;20375;-70
2021/06/20 08:09:36;;;;;;;258.38;133.90;;;;;;;22.81;100.00;97659.16;5115662;27;20212;-70
2021/06/20 08:12:03;;;;;;;263.25;136.13;;;;;;;23.07;100.00;97659.31;5113258;27;20233;-70
2021/06/20 08:14:30;;;;;;;266.17;139.80;;;;;;;22.36;100.00;97659.91;5113173;27;20221;-70
2021/06/20 08:16:56;;;;;;;258.63;134.32;;;;;;;22.74;100.00;97642.13;5111357;27;20237;-71
2021/06/20 08:19:24;;;;;;;257.65;140.93;;;;;;;22.65;100.00;97635.03;5116157;27;20600;-71
2021/06/20 08:21:51;;;;;;;266.10;139.18;;;;;;;22.27;100.00;97626.25;5112702;27;20244;-71
2021/06/20 08:24:18;;;;;;;243.90;138.52;;;;;;;22.57;100.00;97626.94;5109839;27;20227;-71
2021/06/20 08:26:45;;;;;;;252.88;141.35;;;;;;;22.25;100.00;97614.91;5113045;27;21101;-71
2021/06/20 08:29:13;;;;;;;256.08;151.35;;;;;;;22.78;100.00;97587.66;5109067;27;20941;-70
2021/06/20 08:31:40;;;;;;;301.75;157.25;;;;;;;23.02;100.00;97586.25;5108882;27;20718;-71
2021/06/20 08:34:08;;;;;;;258.30;153.23;;;;;;;23.07;100.00;97597.31;5108326;27;20312;-70
2021/06/20 08:36:36;;;;;;;277.33;167.07;;;;;;;23.22;100.00;97584.31;5112765;27;20233;-71
2021/06/20 08:39:04;;;;;;;278.38;173.88;;;;;;;23.51;100.00;97580.53;5111592;27;20328;-71
2021/06/20 08:41:32;;;;;;;279.42;173.07;;;;;;;23.40;100.00;97587.78;5112294;27;20330;-70
2021/06/20 08:43:58;;;;;;;285.92;179.27;;;;;;;23.60;100.00;97579.59;5110125;27;20610;-70
2021/06/20 08:46:25;;;;;;;273.40;184.32;;;;;;;23.74;99.30;97594.19;5111163;27;20413;-71
2021/06/20 08:48:52;;;;;;;271.02;180.23;;;;;;;23.79;100.00;97573.25;5111549;27;20209;-70
2021/06/20 08:51:18;;;;;;;309.25;190.65;;;;;;;24.23;100.00;97573.19;5111158;27;20823;-71
2021/06/20 08:53:46;;;;;;;283.08;188.82;;;;;;;24.48;92.01;97573.28;5112058;27;20208;-70
2021/06/20 08:56:13;;;;;;;267.50;184.45;;;;;;;24.73;84.39;97564.38;5109192;27;20253;-70
2021/06/20 08:58:40;;;;;;;278.40;182.50;;;;;;;24.69;88.22;97563.03;5108742;27;20214;-70
2021/06/20 09:01:07;;;;;;;267.90;182.18;;;;;;;24.80;83.82;97557.41;5112549;27;20330;-71
2021/06/20 09:03:40;;;;;;;270.15;188.20;;;;;;;25.11;86.69;97570.13;5110115;27;20590;-70
2021/06/20 09:06:15;;;;;;;263.25;181.25;;;;;;;25.02;80.20;97565.78;5112314;27;20237;-70
2021/06/20 09:08:47;;;;;;;275.73;186.07;;;;;;;24.63;85.18;97571.72;5113505;27;20225;-70
2021/06/20 09:11:23;;;;;;;264.13;188.23;;;;;;;24.63;87.77;97569.03;5107144;27;20243;-72
2021/06/20 09:13:50;;;;;;;30.05;27.55;;;;;;;24.20;88.54;97570.84;5110727;27;20211;-71
2021/06/20 09:16:21;;;;;;;29.25;26.70;;;;;;;24.50;79.99;97553.47;5111530;27;20239;-74
2021/06/20 09:18:51;;;;;;;30.48;27.55;;;;;;;24.24;85.99;97551.72;5115093;27;20230;-71
2021/06/20 09:21:23;;;;;;;30.38;27.45;;;;;;;24.14;83.23;97568.81;5109107;27;20326;-72
2021/06/20 09:23:51;;;;;;;31.88;29.02;;;;;;;24.25;84.70;97571.19;5111959;27;20215;-71
2021/06/20 09:26:18;;;;;;;29.65;27.10;;;;;;;25.09;78.54;97563.25;5113871;27;20251;-71
2021/06/20 09:28:48;;;;;;;29.00;26.38;;;;;;;24.60;72.60;97564.03;5110789;27;20215;-71
2021/06/20 09:31:15;;;;;;;30.60;27.80;;;;;;;24.72;70.83;97568.06;5109022;27;20261;-71
2021/06/20 09:33:41;;;;;;;29.13;26.60;;;;;;;24.95;70.28;97568.25;5108546;27;20222;-71
2021/06/20 09:36:08;;;;;;;29.52;26.92;;;;;;;24.56;73.03;97576.00;5110140;27;20228;-70
2021/06/20 09:38:36;;;;;;;28.83;26.35;;;;;;;24.41;74.42;97571.25;5113225;27;20208;-71
2021/06/20 09:41:06;;;;;;;29.80;26.83;;;;;;;24.68;72.94;97576.53;5112442;27;20245;-71
2021/06/20 09:43:33;;;;;;;31.02;28.52;;;;;;;24.45;76.05;97587.78;5074887;27;20325;-71
2021/06/20 09:46:00;;;;;;;30.30;27.52;;;;;;;24.48;77.17;97586.59;5085456;28;20232;-71
2021/06/20 09:48:29;;;;;;;30.10;27.50;;;;;;;23.92;79.74;97591.50;5073997;28;20234;-71
2021/06/20 09:50:56;;;;;;;31.20;28.10;;;;;;;24.35;79.48;97584.38;5075734;28;20796;-71
2021/06/20 09:53:32;;;;;;;32.45;28.85;;;;;;;24.14;82.18;97590.13;5075975;28;20972;-71
2021/06/20 09:56:14;;;;;;;31.95;28.88;;;;;;;24.62;83.62;97594.03;5076739;28;20959;-71
2021/06/20 09:58:44;;;;;;;32.63;29.42;;;;;;;24.51;82.72;97602.28;5077279;28;20220;-71
2021/06/20 10:01:11;;;;;;;31.92;29.02;;;;;;;24.75;84.39;97605.06;5076993;28;21090;-71
2021/06/20 10:03:38;;;;;;;34.33;30.63;;;;;;;24.75;87.14;97610.38;5077342;28;20215;-71
2021/06/20 10:06:06;;;;;;;35.78;31.00;;;;;;;24.38;89.11;97614.22;5075967;28;20241;-72
2021/06/20 10:08:33;;;;;;;34.38;29.83;;;;;;;24.81;80.35;97608.91;5076325;28;20695;-71
2021/06/20 10:10:59;;;;;;;43.22;30.08;;;;;;;24.77;80.99;97604.91;5076133;28;20236;-71
2021/06/20 10:13:27;;;;;;;42.70;30.10;;;;;;;24.36;81.85;97610.88;5076473;28;20216;-72
2021/06/20 10:15:54;;;;;;;39.00;30.25;;;;;;;24.07;80.08;97621.88;5075352;28;20233;-71
2021/06/20 10:18:21;;;;;;;41.65;30.25;;;;;;;24.24;79.06;97622.81;5074215;28;20214;-71
2021/06/20 10:20:48;;;;;;;41.00;29.75;;;;;;;23.93;80.80;97619.78;5073875;28;20240;-71
2021/06/20 10:23:19;;;;;;;49.97;30.17;;;;;;;23.93;81.38;97610.00;5077397;28;20223;-72
2021/06/20 10:25:45;;;;;;;40.42;29.38;;;;;;;23.94;82.21;97603.66;5077095;28;20882;-71
2021/06/20 10:28:14;;;;;;;42.78;30.27;;;;;;;23.59;86.23;97613.38;5075700;28;20274;-71
2021/06/20 10:30:43;;;;;;;45.80;29.98;;;;;;;23.64;87.08;97611.09;5076072;28;20241;-71
2021/06/20 10:33:12;;;;;;;37.92;29.25;;;;;;;23.22;92.24;97609.06;5074875;28;20542;-71
2021/06/20 10:35:41;;;;;;;34.90;29.27;;;;;;;23.12;90.72;97626.91;5074784;28;20237;-71
2021/06/20 10:38:08;;;;;;;40.30;29.20;;;;;;;23.02;90.99;97624.31;5077066;28;20220;-72
2021/06/20 10:40:36;;;;;;;39.33;29.38;;;;;;;23.19;91.89;97617.34;5073331;28;20241;-72
2021/06/20 10:43:15;;;;;;;39.55;28.83;;;;;;;23.25;85.32;97607.91;5074156;28;20690;-71
2021/06/20 10:45:43;;;;;;;34.80;29.05;;;;;;;23.11;89.33;97622.59;5071531;28;20229;-72
2021/06/20 10:48:15;;;;;;;41.05;29.98;;;;;;;22.82;93.52;97615.63;5076674;28;20208;-71
2021/06/20 10:50:48;;;;;;;37.33;29.05;;;;;;;23.12;91.46;97626.91;5074087;28;20257;-71
2021/06/20 10:53:15;;;;;;;47.00;31.40;;;;;;;22.81;95.63;97624.59;5076111;28;20252;-71
2021/06/20 10:55:44;;;;;;;39.88;30.15;;;;;;;22.68;98.23;97613.47;5073610;28;20233;-71
2021/06/20 10:58:19;;;;;;;46.38;29.98;;;;;;;22.73;94.88;97605.06;5076470;28;20221;-71
2021/06/20 11:00:48;;;;;;;53.25;30.38;;;;;;;22.50;93.62;97590.34;5076131;28;21016;-71
2021/06/20 11:03:22;;;;;;;40.75;29.15;;;;;;;22.82;88.44;97588.19;5073935;28;20689;-71
2021/06/20 11:05:50;;;;;;;38.28;29.58;;;;;;;22.37;95.17;97563.28;5076132;28;20329;-72
2021/06/20 11:08:27;;;;;;;37.35;28.23;;;;;;;22.59;90.80;97554.06;5075478;28;20217;-71